sensor_id;sensor_type;location;lat;lon;timestamp;temperature;humidity
41304;DHT22;51002;51.462;7.218;2023-04-28T00:01:35;11.00;53.30
41304;DHT22;51002;51.462;7.218;2023-04-28T00:04:00;11.00;54.10
41304;DHT22;51002;51.462;7.218;2023-04-28T00:06:26;11.00;57.40
41304;DHT22;51002;51.462;7.218;2023-04-28T00:08:51;11.10;59.30
41304;DHT22;51002;51.462;7.218;2023-04-28T00:11:17;11.00;56.30
41304;DHT22;51002;51.462;7.218;2023-04-28T00:13:45;11.00;56.80
41304;DHT22;51002;51.462;7.218;2023-04-28T00:16:13;11.00;57.30
41304;DHT22;51002;51.462;7.218;2023-04-28T00:18:39;11.00;58.60
41304;DHT22;51002;51.462;7.218;2023-04-28T00:21:04;10.90;58.00
41304;DHT22;51002;51.462;7.218;2023-04-28T00:23:30;10.70;62.10
41304;DHT22;51002;51.462;7.218;2023-04-28T00:25:58;10.80;62.90
41304;DHT22;51002;51.462;7.218;2023-04-28T00:28:26;10.80;61.40
41304;DHT22;51002;51.462;7.218;2023-04-28T00:30:57;11.00;63.20
41304;DHT22;51002;51.462;7.218;2023-04-28T00:33:25;11.00;62.30
41304;DHT22;51002;51.462;7.218;2023-04-28T00:35:57;11.00;63.10
41304;DHT22;51002;51.462;7.218;2023-04-28T00:38:23;11.00;61.50
41304;DHT22;51002;51.462;7.218;2023-04-28T00:40:51;10.90;59.50
41304;DHT22;51002;51.462;7.218;2023-04-28T00:43:20;10.90;61.40
41304;DHT22;51002;51.462;7.218;2023-04-28T00:45:45;11.10;65.80
41304;DHT22;51002;51.462;7.218;2023-04-28T00:48:12;11.10;67.30
41304;DHT22;51002;51.462;7.218;2023-04-28T00:50:40;11.00;69.40
41304;DHT22;51002;51.462;7.218;2023-04-28T00:53:06;10.70;72.60
41304;DHT22;51002;51.462;7.218;2023-04-28T00:55:32;10.60;71.70
41304;DHT22;51002;51.462;7.218;2023-04-28T00:57:59;10.40;71.70
41304;DHT22;51002;51.462;7.218;2023-04-28T01:00:24;10.30;72.90
41304;DHT22;51002;51.462;7.218;2023-04-28T01:02:50;10.30;72.70
41304;DHT22;51002;51.462;7.218;2023-04-28T01:05:18;10.30;73.00
41304;DHT22;51002;51.462;7.218;2023-04-28T01:07:46;10.30;79.60
41304;DHT22;51002;51.462;7.218;2023-04-28T01:10:17;10.40;77.50
41304;DHT22;51002;51.462;7.218;2023-04-28T01:12:42;10.40;77.50
41304;DHT22;51002;51.462;7.218;2023-04-28T01:15:16;10.30;76.10
41304;DHT22;51002;51.462;7.218;2023-04-28T01:17:42;10.30;72.60
41304;DHT22;51002;51.462;7.218;2023-04-28T01:20:08;10.30;77.10
41304;DHT22;51002;51.462;7.218;2023-04-28T01:22:36;10.40;77.40
41304;DHT22;51002;51.462;7.218;2023-04-28T01:25:04;10.30;77.40
41304;DHT22;51002;51.462;7.218;2023-04-28T01:27:29;10.30;77.60
41304;DHT22;51002;51.462;7.218;2023-04-28T01:29:55;10.20;79.50
41304;DHT22;51002;51.462;7.218;2023-04-28T01:32:22;10.20;80.50
41304;DHT22;51002;51.462;7.218;2023-04-28T01:34:50;10.20;80.70
41304;DHT22;51002;51.462;7.218;2023-04-28T01:37:18;10.30;82.70
41304;DHT22;51002;51.462;7.218;2023-04-28T01:39:43;10.30;83.00
41304;DHT22;51002;51.462;7.218;2023-04-28T01:42:14;10.30;84.40
41304;DHT22;51002;51.462;7.218;2023-04-28T01:44:39;10.20;82.30
41304;DHT22;51002;51.462;7.218;2023-04-28T01:47:05;10.20;81.20
41304;DHT22;51002;51.462;7.218;2023-04-28T01:49:33;10.30;84.20
41304;DHT22;51002;51.462;7.218;2023-04-28T01:51:58;10.30;82.60
41304;DHT22;51002;51.462;7.218;2023-04-28T01:54:24;10.20;82.70
41304;DHT22;51002;51.462;7.218;2023-04-28T01:56:50;10.30;82.80
41304;DHT22;51002;51.462;7.218;2023-04-28T02:01:49;10.20;80.00
41304;DHT22;51002;51.462;7.218;2023-04-28T02:04:15;10.20;80.20
41304;DHT22;51002;51.462;7.218;2023-04-28T02:06:40;10.20;80.70
41304;DHT22;51002;51.462;7.218;2023-04-28T02:09:08;10.20;80.00
41304;DHT22;51002;51.462;7.218;2023-04-28T02:11:34;10.20;80.20
41304;DHT22;51002;51.462;7.218;2023-04-28T02:13:59;10.20;83.70
41304;DHT22;51002;51.462;7.218;2023-04-28T02:16:25;10.30;84.10
41304;DHT22;51002;51.462;7.218;2023-04-28T02:18:50;10.20;82.50
41304;DHT22;51002;51.462;7.218;2023-04-28T02:21:20;9.90;83.00
41304;DHT22;51002;51.462;7.218;2023-04-28T02:23:46;9.90;83.50
41304;DHT22;51002;51.462;7.218;2023-04-28T02:26:11;9.80;84.40
41304;DHT22;51002;51.462;7.218;2023-04-28T02:28:39;9.80;84.40
41304;DHT22;51002;51.462;7.218;2023-04-28T02:31:06;9.80;84.30
41304;DHT22;51002;51.462;7.218;2023-04-28T02:33:33;9.80;84.80
41304;DHT22;51002;51.462;7.218;2023-04-28T02:35:59;9.80;85.20
41304;DHT22;51002;51.462;7.218;2023-04-28T02:38:25;9.70;86.40
41304;DHT22;51002;51.462;7.218;2023-04-28T02:41:01;9.80;87.00
41304;DHT22;51002;51.462;7.218;2023-04-28T02:43:29;9.90;87.10
41304;DHT22;51002;51.462;7.218;2023-04-28T02:45:54;9.80;87.00
41304;DHT22;51002;51.462;7.218;2023-04-28T02:48:23;9.80;87.70
41304;DHT22;51002;51.462;7.218;2023-04-28T02:50:48;10.00;88.60
41304;DHT22;51002;51.462;7.218;2023-04-28T02:53:17;10.00;88.90
41304;DHT22;51002;51.462;7.218;2023-04-28T02:55:43;9.90;88.50
41304;DHT22;51002;51.462;7.218;2023-04-28T02:58:09;10.10;89.90
41304;DHT22;51002;51.462;7.218;2023-04-28T03:00:37;10.10;90.30
41304;DHT22;51002;51.462;7.218;2023-04-28T03:03:02;10.00;93.00
41304;DHT22;51002;51.462;7.218;2023-04-28T03:05:28;10.00;93.50
41304;DHT22;51002;51.462;7.218;2023-04-28T03:07:56;10.00;93.60
41304;DHT22;51002;51.462;7.218;2023-04-28T03:10:21;10.00;93.70
41304;DHT22;51002;51.462;7.218;2023-04-28T03:12:47;9.90;93.60
41304;DHT22;51002;51.462;7.218;2023-04-28T03:15:12;9.80;93.50
41304;DHT22;51002;51.462;7.218;2023-04-28T03:17:38;9.90;93.90
41304;DHT22;51002;51.462;7.218;2023-04-28T03:20:07;9.80;93.80
41304;DHT22;51002;51.462;7.218;2023-04-28T03:22:33;9.90;93.80
41304;DHT22;51002;51.462;7.218;2023-04-28T03:25:01;9.80;93.70
41304;DHT22;51002;51.462;7.218;2023-04-28T03:27:27;10.00;93.90
41304;DHT22;51002;51.462;7.218;2023-04-28T03:29:55;9.80;93.60
41304;DHT22;51002;51.462;7.218;2023-04-28T03:32:22;9.80;93.60
41304;DHT22;51002;51.462;7.218;2023-04-28T03:34:48;9.80;93.60
41304;DHT22;51002;51.462;7.218;2023-04-28T03:37:13;9.80;93.50
41304;DHT22;51002;51.462;7.218;2023-04-28T03:39:41;9.80;93.10
41304;DHT22;51002;51.462;7.218;2023-04-28T03:42:07;9.80;93.10
41304;DHT22;51002;51.462;7.218;2023-04-28T03:44:33;9.90;93.00
41304;DHT22;51002;51.462;7.218;2023-04-28T03:46:58;9.90;92.90
41304;DHT22;51002;51.462;7.218;2023-04-28T03:49:24;9.90;92.70
41304;DHT22;51002;51.462;7.218;2023-04-28T03:51:51;10.00;92.50
41304;DHT22;51002;51.462;7.218;2023-04-28T03:54:19;10.00;92.40
41304;DHT22;51002;51.462;7.218;2023-04-28T03:56:47;10.00;92.20
41304;DHT22;51002;51.462;7.218;2023-04-28T03:59:15;10.00;92.10
41304;DHT22;51002;51.462;7.218;2023-04-28T04:01:41;10.00;92.10
41304;DHT22;51002;51.462;7.218;2023-04-28T04:04:06;10.20;92.00
41304;DHT22;51002;51.462;7.218;2023-04-28T04:06:32;10.10;91.90
41304;DHT22;51002;51.462;7.218;2023-04-28T04:09:00;10.20;91.40
41304;DHT22;51002;51.462;7.218;2023-04-28T04:11:26;10.20;90.60
41304;DHT22;51002;51.462;7.218;2023-04-28T04:13:53;10.30;89.10
41304;DHT22;51002;51.462;7.218;2023-04-28T04:16:19;10.30;88.30
41304;DHT22;51002;51.462;7.218;2023-04-28T04:18:47;10.40;88.10
41304;DHT22;51002;51.462;7.218;2023-04-28T04:21:12;10.40;87.50
41304;DHT22;51002;51.462;7.218;2023-04-28T04:23:38;10.40;87.30
41304;DHT22;51002;51.462;7.218;2023-04-28T04:26:06;10.40;87.30
41304;DHT22;51002;51.462;7.218;2023-04-28T04:28:31;10.40;87.10
41304;DHT22;51002;51.462;7.218;2023-04-28T04:30:56;10.50;86.60
41304;DHT22;51002;51.462;7.218;2023-04-28T04:33:22;10.60;86.80
41304;DHT22;51002;51.462;7.218;2023-04-28T04:35:48;10.50;86.20
41304;DHT22;51002;51.462;7.218;2023-04-28T04:38:13;10.60;86.20
41304;DHT22;51002;51.462;7.218;2023-04-28T04:40:43;10.60;86.20
41304;DHT22;51002;51.462;7.218;2023-04-28T04:43:09;10.50;86.50
41304;DHT22;51002;51.462;7.218;2023-04-28T04:45:34;10.50;85.40
41304;DHT22;51002;51.462;7.218;2023-04-28T04:48:02;10.60;86.20
41304;DHT22;51002;51.462;7.218;2023-04-28T04:50:28;10.70;86.30
41304;DHT22;51002;51.462;7.218;2023-04-28T04:52:53;10.80;86.50
41304;DHT22;51002;51.462;7.218;2023-04-28T04:55:21;10.80;86.80
41304;DHT22;51002;51.462;7.218;2023-04-28T04:57:47;10.90;87.50
41304;DHT22;51002;51.462;7.218;2023-04-28T05:00:12;11.00;87.60
41304;DHT22;51002;51.462;7.218;2023-04-28T05:02:38;11.00;87.50
41304;DHT22;51002;51.462;7.218;2023-04-28T05:05:04;11.00;87.60
41304;DHT22;51002;51.462;7.218;2023-04-28T05:07:33;11.00;87.10
41304;DHT22;51002;51.462;7.218;2023-04-28T05:09:58;11.00;88.20
41304;DHT22;51002;51.462;7.218;2023-04-28T05:12:24;10.80;91.40
41304;DHT22;51002;51.462;7.218;2023-04-28T05:14:51;10.80;93.00
41304;DHT22;51002;51.462;7.218;2023-04-28T05:17:17;10.80;93.50
41304;DHT22;51002;51.462;7.218;2023-04-28T05:19:42;10.80;93.70
41304;DHT22;51002;51.462;7.218;2023-04-28T05:22:11;10.70;93.70
41304;DHT22;51002;51.462;7.218;2023-04-28T05:24:37;10.70;93.40
41304;DHT22;51002;51.462;7.218;2023-04-28T05:27:09;10.50;93.50
41304;DHT22;51002;51.462;7.218;2023-04-28T05:29:37;10.60;93.40
41304;DHT22;51002;51.462;7.218;2023-04-28T05:32:05;10.70;93.80
41304;DHT22;51002;51.462;7.218;2023-04-28T05:34:31;10.60;93.70
41304;DHT22;51002;51.462;7.218;2023-04-28T05:36:56;10.70;93.90
41304;DHT22;51002;51.462;7.218;2023-04-28T05:39:24;10.60;94.00
41304;DHT22;51002;51.462;7.218;2023-04-28T05:41:50;10.70;94.30
41304;DHT22;51002;51.462;7.218;2023-04-28T05:44:15;10.70;94.10
41304;DHT22;51002;51.462;7.218;2023-04-28T05:46:41;10.60;94.20
41304;DHT22;51002;51.462;7.218;2023-04-28T05:49:07;10.60;94.00
41304;DHT22;51002;51.462;7.218;2023-04-28T05:51:35;10.50;93.80
41304;DHT22;51002;51.462;7.218;2023-04-28T05:54:01;10.70;94.00
41304;DHT22;51002;51.462;7.218;2023-04-28T05:56:29;10.70;93.80
41304;DHT22;51002;51.462;7.218;2023-04-28T05:58:54;10.80;93.70
41304;DHT22;51002;51.462;7.218;2023-04-28T06:01:22;11.00;93.80
41304;DHT22;51002;51.462;7.218;2023-04-28T06:03:48;10.90;93.60
41304;DHT22;51002;51.462;7.218;2023-04-28T06:06:13;10.90;93.50
41304;DHT22;51002;51.462;7.218;2023-04-28T06:08:39;10.80;93.30
41304;DHT22;51002;51.462;7.218;2023-04-28T06:11:07;10.70;93.10
41304;DHT22;51002;51.462;7.218;2023-04-28T06:13:35;10.90;93.20
41304;DHT22;51002;51.462;7.218;2023-04-28T06:16:05;10.80;92.80
41304;DHT22;51002;51.462;7.218;2023-04-28T06:18:34;10.80;92.70
41304;DHT22;51002;51.462;7.218;2023-04-28T06:20:59;10.90;92.80
41304;DHT22;51002;51.462;7.218;2023-04-28T06:23:25;11.00;92.20
41304;DHT22;51002;51.462;7.218;2023-04-28T06:25:53;11.00;91.50
41304;DHT22;51002;51.462;7.218;2023-04-28T06:28:21;11.10;91.50
41304;DHT22;51002;51.462;7.218;2023-04-28T06:30:48;11.10;91.20
41304;DHT22;51002;51.462;7.218;2023-04-28T06:33:14;11.10;91.50
41304;DHT22;51002;51.462;7.218;2023-04-28T06:35:42;11.10;91.20
41304;DHT22;51002;51.462;7.218;2023-04-28T06:38:10;11.20;89.50
41304;DHT22;51002;51.462;7.218;2023-04-28T06:40:35;11.30;87.80
41304;DHT22;51002;51.462;7.218;2023-04-28T06:43:01;11.50;87.50
41304;DHT22;51002;51.462;7.218;2023-04-28T06:45:27;11.70;87.00
41304;DHT22;51002;51.462;7.218;2023-04-28T06:47:55;11.80;86.00
41304;DHT22;51002;51.462;7.218;2023-04-28T06:50:23;12.00;86.70
41304;DHT22;51002;51.462;7.218;2023-04-28T06:52:48;12.10;86.00
41304;DHT22;51002;51.462;7.218;2023-04-28T06:55:14;12.20;85.60
41304;DHT22;51002;51.462;7.218;2023-04-28T06:57:41;12.20;86.40
41304;DHT22;51002;51.462;7.218;2023-04-28T07:00:06;12.30;85.60
41304;DHT22;51002;51.462;7.218;2023-04-28T07:02:34;12.30;85.40
41304;DHT22;51002;51.462;7.218;2023-04-28T07:05:01;12.40;85.40
41304;DHT22;51002;51.462;7.218;2023-04-28T07:07:31;12.50;85.60
41304;DHT22;51002;51.462;7.218;2023-04-28T07:09:57;12.60;84.90
41304;DHT22;51002;51.462;7.218;2023-04-28T07:12:26;12.70;84.30
41304;DHT22;51002;51.462;7.218;2023-04-28T07:14:51;12.60;84.50
41304;DHT22;51002;51.462;7.218;2023-04-28T07:17:17;12.60;83.70
41304;DHT22;51002;51.462;7.218;2023-04-28T07:19:42;12.70;83.80
41304;DHT22;51002;51.462;7.218;2023-04-28T07:22:10;12.80;83.30
41304;DHT22;51002;51.462;7.218;2023-04-28T07:24:38;12.80;83.00
41304;DHT22;51002;51.462;7.218;2023-04-28T07:27:03;12.80;82.80
41304;DHT22;51002;51.462;7.218;2023-04-28T07:29:29;13.00;84.70
41304;DHT22;51002;51.462;7.218;2023-04-28T07:31:59;13.20;84.40
41304;DHT22;51002;51.462;7.218;2023-04-28T07:34:27;13.10;83.60
41304;DHT22;51002;51.462;7.218;2023-04-28T07:36:52;13.20;85.30
41304;DHT22;51002;51.462;7.218;2023-04-28T07:39:18;13.20;85.20
41304;DHT22;51002;51.462;7.218;2023-04-28T07:41:43;13.90;84.80
41304;DHT22;51002;51.462;7.218;2023-04-28T07:44:11;14.50;82.20
41304;DHT22;51002;51.462;7.218;2023-04-28T07:46:39;14.70;83.60
41304;DHT22;51002;51.462;7.218;2023-04-28T07:49:07;14.30;80.30
41304;DHT22;51002;51.462;7.218;2023-04-28T07:51:34;14.50;81.40
41304;DHT22;51002;51.462;7.218;2023-04-28T07:54:02;14.70;79.40
41304;DHT22;51002;51.462;7.218;2023-04-28T07:56:30;14.80;80.30
41304;DHT22;51002;51.462;7.218;2023-04-28T07:58:56;14.60;77.50
41304;DHT22;51002;51.462;7.218;2023-04-28T08:01:22;14.70;81.20
41304;DHT22;51002;51.462;7.218;2023-04-28T08:03:49;14.80;80.10
41304;DHT22;51002;51.462;7.218;2023-04-28T08:06:15;14.90;79.90
41304;DHT22;51002;51.462;7.218;2023-04-28T08:08:40;15.10;79.40
41304;DHT22;51002;51.462;7.218;2023-04-28T08:11:06;15.00;78.60
41304;DHT22;51002;51.462;7.218;2023-04-28T08:13:32;14.90;81.00
41304;DHT22;51002;51.462;7.218;2023-04-28T08:16:00;15.00;82.90
41304;DHT22;51002;51.462;7.218;2023-04-28T08:18:26;14.90;81.30
41304;DHT22;51002;51.462;7.218;2023-04-28T08:20:56;15.00;82.40
41304;DHT22;51002;51.462;7.218;2023-04-28T08:23:24;14.90;81.90
41304;DHT22;51002;51.462;7.218;2023-04-28T08:25:52;15.10;80.50
41304;DHT22;51002;51.462;7.218;2023-04-28T08:28:18;15.10;81.80
41304;DHT22;51002;51.462;7.218;2023-04-28T08:30:44;15.00;80.10
41304;DHT22;51002;51.462;7.218;2023-04-28T08:33:12;15.30;81.50
41304;DHT22;51002;51.462;7.218;2023-04-28T08:35:40;15.50;77.30
41304;DHT22;51002;51.462;7.218;2023-04-28T08:38:05;15.50;78.10
41304;DHT22;51002;51.462;7.218;2023-04-28T08:40:31;15.50;77.00
41304;DHT22;51002;51.462;7.218;2023-04-28T08:42:59;15.70;77.50
41304;DHT22;51002;51.462;7.218;2023-04-28T08:45:29;15.80;77.30
41304;DHT22;51002;51.462;7.218;2023-04-28T08:47:57;16.00;77.30
41304;DHT22;51002;51.462;7.218;2023-04-28T08:50:24;15.90;75.70
41304;DHT22;51002;51.462;7.218;2023-04-28T08:52:53;16.10;77.00
41304;DHT22;51002;51.462;7.218;2023-04-28T08:55:22;16.20;75.10
41304;DHT22;51002;51.462;7.218;2023-04-28T08:57:49;16.30;75.10
41304;DHT22;51002;51.462;7.218;2023-04-28T09:00:19;16.50;76.40
41304;DHT22;51002;51.462;7.218;2023-04-28T09:02:47;16.40;75.00
41304;DHT22;51002;51.462;7.218;2023-04-28T09:05:13;16.60;73.40
41304;DHT22;51002;51.462;7.218;2023-04-28T09:07:42;16.60;73.70
41304;DHT22;51002;51.462;7.218;2023-04-28T09:10:22;16.70;72.80
41304;DHT22;51002;51.462;7.218;2023-04-28T09:12:54;16.80;74.00
41304;DHT22;51002;51.462;7.218;2023-04-28T09:15:38;16.80;73.70
41304;DHT22;51002;51.462;7.218;2023-04-28T09:18:06;16.70;74.10
41304;DHT22;51002;51.462;7.218;2023-04-28T09:20:32;16.70;74.20
41304;DHT22;51002;51.462;7.218;2023-04-28T09:23:17;16.70;73.60
41304;DHT22;51002;51.462;7.218;2023-04-28T09:25:58;16.60;72.30
41304;DHT22;51002;51.462;7.218;2023-04-28T09:28:24;16.50;73.50
41304;DHT22;51002;51.462;7.218;2023-04-28T09:30:53;16.60;75.40
41304;DHT22;51002;51.462;7.218;2023-04-28T09:33:18;16.30;73.70
41304;DHT22;51002;51.462;7.218;2023-04-28T09:35:45;16.50;75.10
41304;DHT22;51002;51.462;7.218;2023-04-28T09:38:12;16.50;75.00
41304;DHT22;51002;51.462;7.218;2023-04-28T09:40:50;16.50;76.30
41304;DHT22;51002;51.462;7.218;2023-04-28T09:43:25;16.50;75.50
41304;DHT22;51002;51.462;7.218;2023-04-28T09:45:51;16.30;74.60
41304;DHT22;51002;51.462;7.218;2023-04-28T09:48:26;16.30;75.60
41304;DHT22;51002;51.462;7.218;2023-04-28T09:50:52;16.40;75.10
41304;DHT22;51002;51.462;7.218;2023-04-28T09:53:18;16.40;74.50
41304;DHT22;51002;51.462;7.218;2023-04-28T09:55:46;16.40;74.60
41304;DHT22;51002;51.462;7.218;2023-04-28T09:58:12;16.30;74.70
41304;DHT22;51002;51.462;7.218;2023-04-28T10:00:38;16.20;74.40
41304;DHT22;51002;51.462;7.218;2023-04-28T10:03:04;16.20;73.30
41304;DHT22;51002;51.462;7.218;2023-04-28T10:05:30;16.40;74.00
41304;DHT22;51002;51.462;7.218;2023-04-28T10:07:57;16.60;74.40
41304;DHT22;51002;51.462;7.218;2023-04-28T10:10:27;16.90;78.70
41304;DHT22;51002;51.462;7.218;2023-04-28T10:12:55;17.10;74.10
41304;DHT22;51002;51.462;7.218;2023-04-28T10:15:21;17.20;73.70
41304;DHT22;51002;51.462;7.218;2023-04-28T10:17:50;17.10;74.90
41304;DHT22;51002;51.462;7.218;2023-04-28T10:20:18;16.90;76.40
41304;DHT22;51002;51.462;7.218;2023-04-28T10:25:24;16.70;74.40
41304;DHT22;51002;51.462;7.218;2023-04-28T10:27:50;16.60;74.40
41304;DHT22;51002;51.462;7.218;2023-04-28T10:30:17;16.80;74.90
41304;DHT22;51002;51.462;7.218;2023-04-28T10:32:45;17.00;74.80
41304;DHT22;51002;51.462;7.218;2023-04-28T10:42:58;17.30;75.40
41304;DHT22;51002;51.462;7.218;2023-04-28T10:58:39;17.00;75.00
41304;DHT22;51002;51.462;7.218;2023-04-28T11:06:24;16.90;76.30
41304;DHT22;51002;51.462;7.218;2023-04-28T11:08:51;16.80;77.00
41304;DHT22;51002;51.462;7.218;2023-04-28T11:11:19;16.60;77.20
41304;DHT22;51002;51.462;7.218;2023-04-28T11:13:45;16.60;77.80
41304;DHT22;51002;51.462;7.218;2023-04-28T11:16:14;16.60;78.40
41304;DHT22;51002;51.462;7.218;2023-04-28T11:21:09;16.60;79.10
41304;DHT22;51002;51.462;7.218;2023-04-28T11:23:37;16.40;78.10
41304;DHT22;51002;51.462;7.218;2023-04-28T11:26:06;16.40;79.50
41304;DHT22;51002;51.462;7.218;2023-04-28T11:28:31;16.60;78.50
41304;DHT22;51002;51.462;7.218;2023-04-28T11:31:12;16.60;78.60
41304;DHT22;51002;51.462;7.218;2023-04-28T11:33:38;16.60;79.80
41304;DHT22;51002;51.462;7.218;2023-04-28T11:36:08;16.50;80.00
41304;DHT22;51002;51.462;7.218;2023-04-28T11:38:45;16.50;80.00
41304;DHT22;51002;51.462;7.218;2023-04-28T11:41:12;16.60;81.30
41304;DHT22;51002;51.462;7.218;2023-04-28T11:43:41;16.50;83.00
41304;DHT22;51002;51.462;7.218;2023-04-28T11:46:06;16.60;84.10
41304;DHT22;51002;51.462;7.218;2023-04-28T11:48:32;16.50;83.20
41304;DHT22;51002;51.462;7.218;2023-04-28T11:50:57;16.50;82.80
41304;DHT22;51002;51.462;7.218;2023-04-28T11:56:07;16.60;82.00
41304;DHT22;51002;51.462;7.218;2023-04-28T11:58:37;16.60;82.00
41304;DHT22;51002;51.462;7.218;2023-04-28T12:01:07;16.50;81.10
41304;DHT22;51002;51.462;7.218;2023-04-28T12:03:32;16.60;81.40
41304;DHT22;51002;51.462;7.218;2023-04-28T12:06:06;16.30;81.00
41304;DHT22;51002;51.462;7.218;2023-04-28T12:08:32;16.40;81.90
41304;DHT22;51002;51.462;7.218;2023-04-28T12:11:11;16.60;80.70
41304;DHT22;51002;51.462;7.218;2023-04-28T12:13:42;16.60;80.50
41304;DHT22;51002;51.462;7.218;2023-04-28T12:16:10;16.70;80.60
41304;DHT22;51002;51.462;7.218;2023-04-28T12:18:44;16.50;80.70
41304;DHT22;51002;51.462;7.218;2023-04-28T12:21:22;16.70;80.10
41304;DHT22;51002;51.462;7.218;2023-04-28T12:23:47;17.00;81.10
41304;DHT22;51002;51.462;7.218;2023-04-28T12:26:13;17.10;80.50
41304;DHT22;51002;51.462;7.218;2023-04-28T12:28:39;17.10;80.40
41304;DHT22;51002;51.462;7.218;2023-04-28T12:31:05;17.00;79.10
41304;DHT22;51002;51.462;7.218;2023-04-28T12:33:32;17.20;80.20
41304;DHT22;51002;51.462;7.218;2023-04-28T12:36:07;17.30;78.70
41304;DHT22;51002;51.462;7.218;2023-04-28T12:38:36;17.20;78.90
41304;DHT22;51002;51.462;7.218;2023-04-28T12:41:13;17.10;78.90
41304;DHT22;51002;51.462;7.218;2023-04-28T12:43:39;17.00;79.20
41304;DHT22;51002;51.462;7.218;2023-04-28T12:46:05;17.00;79.70
41304;DHT22;51002;51.462;7.218;2023-04-28T12:48:35;17.10;80.60
41304;DHT22;51002;51.462;7.218;2023-04-28T12:51:00;17.20;81.50
41304;DHT22;51002;51.462;7.218;2023-04-28T12:53:26;17.00;79.70
41304;DHT22;51002;51.462;7.218;2023-04-28T12:55:51;16.90;79.60
41304;DHT22;51002;51.462;7.218;2023-04-28T12:58:18;17.00;80.30
41304;DHT22;51002;51.462;7.218;2023-04-28T13:00:46;16.70;79.60
41304;DHT22;51002;51.462;7.218;2023-04-28T13:03:14;17.00;79.80
41304;DHT22;51002;51.462;7.218;2023-04-28T13:05:39;17.30;80.20
41304;DHT22;51002;51.462;7.218;2023-04-28T13:08:05;17.50;77.70
41304;DHT22;51002;51.462;7.218;2023-04-28T13:10:33;17.80;78.00
41304;DHT22;51002;51.462;7.218;2023-04-28T13:13:00;17.80;78.00
41304;DHT22;51002;51.462;7.218;2023-04-28T13:15:32;17.80;78.30
41304;DHT22;51002;51.462;7.218;2023-04-28T13:18:01;17.80;78.30
41304;DHT22;51002;51.462;7.218;2023-04-28T13:20:30;17.80;77.80
41304;DHT22;51002;51.462;7.218;2023-04-28T13:22:55;17.90;77.80
41304;DHT22;51002;51.462;7.218;2023-04-28T13:25:25;17.90;76.40
41304;DHT22;51002;51.462;7.218;2023-04-28T13:27:50;18.00;76.10
41304;DHT22;51002;51.462;7.218;2023-04-28T13:30:19;18.10;76.40
41304;DHT22;51002;51.462;7.218;2023-04-28T13:32:45;18.00;76.30
41304;DHT22;51002;51.462;7.218;2023-04-28T13:35:12;18.00;76.50
41304;DHT22;51002;51.462;7.218;2023-04-28T13:37:41;18.20;75.60
41304;DHT22;51002;51.462;7.218;2023-04-28T13:40:10;18.20;76.80
41304;DHT22;51002;51.462;7.218;2023-04-28T13:42:36;18.30;75.30
41304;DHT22;51002;51.462;7.218;2023-04-28T13:45:02;18.40;75.20
41304;DHT22;51002;51.462;7.218;2023-04-28T13:47:28;18.50;74.50
41304;DHT22;51002;51.462;7.218;2023-04-28T13:49:56;18.70;75.40
41304;DHT22;51002;51.462;7.218;2023-04-28T13:52:22;18.70;73.80
41304;DHT22;51002;51.462;7.218;2023-04-28T13:54:48;18.70;73.40
41304;DHT22;51002;51.462;7.218;2023-04-28T13:57:13;18.70;73.80
41304;DHT22;51002;51.462;7.218;2023-04-28T13:59:39;18.70;73.30
41304;DHT22;51002;51.462;7.218;2023-04-28T14:02:04;18.50;73.00
41304;DHT22;51002;51.462;7.218;2023-04-28T14:04:33;18.50;73.80
41304;DHT22;51002;51.462;7.218;2023-04-28T14:06:59;18.60;74.80
41304;DHT22;51002;51.462;7.218;2023-04-28T14:09:26;18.70;75.00
41304;DHT22;51002;51.462;7.218;2023-04-28T14:11:52;18.60;74.00
41304;DHT22;51002;51.462;7.218;2023-04-28T14:14:21;18.70;74.70
41304;DHT22;51002;51.462;7.218;2023-04-28T14:16:46;18.60;75.70
41304;DHT22;51002;51.462;7.218;2023-04-28T14:19:14;18.50;73.30
41304;DHT22;51002;51.462;7.218;2023-04-28T14:21:45;18.40;72.70
41304;DHT22;51002;51.462;7.218;2023-04-28T14:24:10;18.40;72.50
41304;DHT22;51002;51.462;7.218;2023-04-28T14:26:36;18.40;74.20
41304;DHT22;51002;51.462;7.218;2023-04-28T14:29:04;18.40;74.20
41304;DHT22;51002;51.462;7.218;2023-04-28T14:31:30;18.50;73.70
41304;DHT22;51002;51.462;7.218;2023-04-28T14:33:55;18.60;72.70
41304;DHT22;51002;51.462;7.218;2023-04-28T14:36:21;18.80;73.50
41304;DHT22;51002;51.462;7.218;2023-04-28T14:38:46;18.80;72.40
41304;DHT22;51002;51.462;7.218;2023-04-28T14:41:14;18.80;72.20
41304;DHT22;51002;51.462;7.218;2023-04-28T14:43:42;18.80;71.30
41304;DHT22;51002;51.462;7.218;2023-04-28T14:46:10;18.60;71.50
41304;DHT22;51002;51.462;7.218;2023-04-28T14:48:35;18.60;74.20
41304;DHT22;51002;51.462;7.218;2023-04-28T14:51:01;18.70;72.60
41304;DHT22;51002;51.462;7.218;2023-04-28T14:53:26;18.60;72.30
41304;DHT22;51002;51.462;7.218;2023-04-28T14:55:54;18.50;71.50
41304;DHT22;51002;51.462;7.218;2023-04-28T14:58:19;18.60;71.80
41304;DHT22;51002;51.462;7.218;2023-04-28T15:00:47;18.70;72.30
41304;DHT22;51002;51.462;7.218;2023-04-28T15:03:12;18.60;71.90
41304;DHT22;51002;51.462;7.218;2023-04-28T15:05:38;18.60;72.60
41304;DHT22;51002;51.462;7.218;2023-04-28T15:08:04;18.60;71.80
41304;DHT22;51002;51.462;7.218;2023-04-28T15:10:36;18.70;72.60
41304;DHT22;51002;51.462;7.218;2023-04-28T15:13:04;18.80;72.20
41304;DHT22;51002;51.462;7.218;2023-04-28T15:15:33;18.80;72.60
41304;DHT22;51002;51.462;7.218;2023-04-28T15:17:58;18.70;71.70
41304;DHT22;51002;51.462;7.218;2023-04-28T15:20:31;18.60;72.10
41304;DHT22;51002;51.462;7.218;2023-04-28T15:23:01;18.70;73.00
41304;DHT22;51002;51.462;7.218;2023-04-28T15:25:26;18.50;72.40
41304;DHT22;51002;51.462;7.218;2023-04-28T15:27:55;18.50;73.10
41304;DHT22;51002;51.462;7.218;2023-04-28T15:30:20;18.40;75.20
41304;DHT22;51002;51.462;7.218;2023-04-28T15:32:48;18.30;74.40
41304;DHT22;51002;51.462;7.218;2023-04-28T15:35:14;18.30;74.70
41304;DHT22;51002;51.462;7.218;2023-04-28T15:37:41;18.40;74.50
41304;DHT22;51002;51.462;7.218;2023-04-28T15:40:08;18.30;75.40
41304;DHT22;51002;51.462;7.218;2023-04-28T15:42:34;18.30;74.90
41304;DHT22;51002;51.462;7.218;2023-04-28T15:45:02;18.20;74.40
41304;DHT22;51002;51.462;7.218;2023-04-28T15:47:30;18.20;74.00
41304;DHT22;51002;51.462;7.218;2023-04-28T15:49:59;18.20;74.60
41304;DHT22;51002;51.462;7.218;2023-04-28T15:52:24;18.20;75.10
41304;DHT22;51002;51.462;7.218;2023-04-28T15:54:51;17.80;74.50
41304;DHT22;51002;51.462;7.218;2023-04-28T15:57:16;17.60;74.90
41304;DHT22;51002;51.462;7.218;2023-04-28T15:59:42;17.40;75.00
41304;DHT22;51002;51.462;7.218;2023-04-28T16:02:07;17.50;74.60
41304;DHT22;51002;51.462;7.218;2023-04-28T16:04:35;17.30;75.10
41304;DHT22;51002;51.462;7.218;2023-04-28T16:07:01;17.10;75.00
41304;DHT22;51002;51.462;7.218;2023-04-28T16:09:29;17.20;75.30